Edinburg, Pennsylvania
Current Conditions -  °F | °C
As of 1:47 PM on Thursday 23 Oct 2014 (Local Time) from KBVI Reporting Station
Overcast Overcast  
Wind Chill: 15°   Ceiling: 3300
Heat Index: 15°   Visibility: 10mi
Dew Point:   Wind: 8mph
Humidity: 59%   Direction: 320°NW
Pressure: 30.11"   Gusts: 18mph
Location:  41.01°N, 80.44°W
Report Text: KBVI 231747Z 32007G16KT 10SM OVC033 15/07 A3011
Loading
Personal Weather Stations






























Interactive Weather Map
Tropical Storm Tracking
New forecast layout! Learn more

10-Day Weather Forecast

Advertisements
Track Severe Weather on mobile